Time;durP1;ratioP1;P1;durP2;ratioP2;P2;SDS_P1;SDS_P2;PMS_P1;PMS_P2;Temp;Humidity;BMP_temperature;BMP_pressure;BME280_temperature;BME280_humidity;BME280_pressure;Samples;Min_cycle;Max_cycle;Signal;HPM_P1;HPM_P2
2023/09/25 00:01:00;;;;;;;3.75;1.90;;;;;;;14.56;69.71;101887.56;3593975;39;20403;-66
2023/09/25 00:03:25;;;;;;;3.35;1.80;;;;;;;14.54;69.20;101884.06;3591621;39;20071;-66
2023/09/25 00:05:51;;;;;;;2.33;1.75;;;;;;;14.51;69.39;101886.94;3592323;39;20100;-67
2023/09/25 00:08:17;;;;;;;1.70;1.60;;;;;;;14.47;69.98;101893.50;3594260;39;20051;-66
2023/09/25 00:10:42;;;;;;;2.60;1.67;;;;;;;14.43;69.71;101897.34;3593773;39;20268;-63
2023/09/25 00:13:08;;;;;;;2.42;2.05;;;;;;;14.42;69.50;101894.72;3593655;39;20386;-64
2023/09/25 00:15:34;;;;;;;3.97;2.00;;;;;;;14.36;69.54;101891.41;3594662;39;20050;-66
2023/09/25 00:18:00;;;;;;;2.72;2.00;;;;;;;14.34;69.96;101892.50;3594164;39;20051;-66
2023/09/25 00:20:25;;;;;;;2.85;1.63;;;;;;;14.33;70.22;101890.75;3594105;39;20071;-65
2023/09/25 00:22:52;;;;;;;2.97;1.60;;;;;;;14.29;69.85;101886.50;3594764;39;20072;-65
2023/09/25 00:25:23;;;;;;;2.13;1.67;;;;;;;14.27;70.18;101891.09;3594259;39;20130;-65
2023/09/25 00:27:48;;;;;;;1.98;1.80;;;;;;;14.28;69.68;101898.28;3597741;39;20052;-67
2023/09/25 00:30:14;;;;;;;2.17;1.77;;;;;;;14.27;69.76;101896.50;3593902;39;20051;-65
2023/09/25 00:32:40;;;;;;;1.38;1.27;;;;;;;14.26;69.48;101900.19;3589414;39;20112;-65
2023/09/25 00:35:09;;;;;;;3.30;1.80;;;;;;;14.22;69.95;101895.94;3597408;39;20063;-64
2023/09/25 00:37:37;;;;;;;2.78;1.65;;;;;;;14.20;69.94;101889.75;3588773;39;20330;-67
2023/09/25 00:40:21;;;;;;;1.67;1.52;;;;;;;14.17;70.08;101902.47;3597856;39;20052;-64
2023/09/25 00:42:50;;;;;;;1.77;1.67;;;;;;;14.16;70.10;101895.34;3596380;39;20058;-66
2023/09/25 00:45:16;;;;;;;1.85;1.75;;;;;;;14.15;70.12;101898.16;3593066;39;20059;-65
2023/09/25 00:47:43;;;;;;;1.90;1.80;;;;;;;14.14;70.34;101896.38;3593834;39;20047;-65
2023/09/25 00:50:10;;;;;;;3.53;1.90;;;;;;;13.96;69.96;101871.34;3594973;39;20052;-65
2023/09/25 00:52:42;;;;;;;2.97;1.73;;;;;;;14.09;70.17;101901.22;3593600;39;20048;-66
2023/09/25 00:55:08;;;;;;;2.08;1.88;;;;;;;14.07;70.17;101901.28;3594470;39;20060;-64
2023/09/25 00:57:35;;;;;;;3.80;2.10;;;;;;;14.03;70.11;101891.63;3598184;39;20123;-66
2023/09/25 01:00:03;;;;;;;3.88;2.08;;;;;;;14.02;70.18;101900.72;3600725;39;20311;-64
2023/09/25 01:02:31;;;;;;;2.38;1.90;;;;;;;14.00;69.97;101897.22;3597889;39;20079;-65
2023/09/25 01:05:02;;;;;;;2.78;2.00;;;;;;;13.99;70.15;101894.63;3602855;39;20062;-65
2023/09/25 01:07:29;;;;;;;3.85;2.30;;;;;;;13.93;70.12;101887.72;3598312;39;20128;-63
2023/09/25 01:10:19;;;;;;;3.45;2.00;;;;;;;13.94;70.37;101898.44;3598812;39;20054;-66
2023/09/25 01:12:49;;;;;;;2.70;2.03;;;;;;;13.87;70.24;101891.66;3590395;39;20051;-65
2023/09/25 01:15:15;;;;;;;2.00;1.80;;;;;;;13.90;69.98;101902.28;3601706;39;20077;-66
2023/09/25 01:17:43;;;;;;;4.20;1.90;;;;;;;13.88;70.52;101909.59;3593042;39;20050;-66
2023/09/25 01:20:13;;;;;;;4.60;1.90;;;;;;;13.78;70.59;101892.19;3594482;39;20060;-65
2023/09/25 01:22:45;;;;;;;3.63;2.05;;;;;;;13.82;70.60;101907.25;3595659;39;20047;-65
2023/09/25 01:25:11;;;;;;;3.55;1.98;;;;;;;13.80;70.56;101900.22;3597901;39;20099;-66
2023/09/25 01:27:39;;;;;;;3.15;2.33;;;;;;;13.57;70.26;101855.59;3602278;39;20069;-65
2023/09/25 01:30:08;;;;;;;4.63;2.72;;;;;;;13.79;70.95;101890.34;3601523;39;20331;-65
2023/09/25 01:32:38;;;;;;;3.70;2.20;;;;;;;13.76;70.43;101887.84;3601112;39;20105;-67
2023/09/25 01:35:13;;;;;;;3.92;2.88;;;;;;;13.74;70.81;101890.63;3599206;39;20035;-65
2023/09/25 01:37:43;;;;;;;4.28;2.45;;;;;;;13.52;71.19;101853.19;3598525;39;20156;-66
2023/09/25 01:40:17;;;;;;;4.38;3.40;;;;;;;13.70;71.76;101891.75;3599065;39;20054;-63
2023/09/25 01:42:44;;;;;;;4.90;2.70;;;;;;;13.69;71.38;101884.63;3593792;39;20266;-66
2023/09/25 01:45:13;;;;;;;4.13;3.33;;;;;;;13.68;71.11;101894.56;3593763;39;20063;-65
2023/09/25 01:47:40;;;;;;;5.03;3.47;;;;;;;13.62;71.25;101884.09;3599937;39;20330;-66
2023/09/25 01:50:10;;;;;;;4.40;2.63;;;;;;;13.64;71.47;101887.59;3596918;39;20103;-65
2023/09/25 01:52:35;;;;;;;4.63;2.50;;;;;;;13.58;71.59;101887.94;3600678;39;20113;-66
2023/09/25 01:55:03;;;;;;;3.17;2.45;;;;;;;13.58;71.46;101890.66;3598237;39;20043;-66
2023/09/25 01:57:31;;;;;;;4.15;2.92;;;;;;;13.57;71.63;101888.88;3599506;39;20165;-64
2023/09/25 01:59:57;;;;;;;3.95;3.00;;;;;;;13.55;71.84;101885.44;3595667;39;20043;-66
2023/09/25 02:02:23;;;;;;;4.10;2.70;;;;;;;13.50;71.93;101887.50;3598173;39;20388;-64
2023/09/25 02:04:48;;;;;;;2.92;2.45;;;;;;;13.50;71.30;101884.81;3599188;39;20051;-65
2023/09/25 02:07:15;;;;;;;4.43;2.30;;;;;;;13.53;71.40;101883.75;3600757;39;20055;-67
2023/09/25 02:09:41;;;;;;;4.65;3.47;;;;;;;13.53;70.93;101879.22;3587281;39;20080;-65
2023/09/25 02:12:07;;;;;;;4.05;2.50;;;;;;;13.52;71.23;101888.31;3597881;39;20067;-66
2023/09/25 02:14:33;;;;;;;2.85;2.10;;;;;;;13.52;70.82;101876.63;3598010;39;20052;-66
2023/09/25 02:16:59;;;;;;;3.20;2.13;;;;;;;13.48;71.09;101873.25;3598179;39;20083;-66
2023/09/25 02:19:28;;;;;;;3.30;2.88;;;;;;;13.50;71.74;101881.25;3599051;39;20070;-65
2023/09/25 02:21:54;;;;;;;3.90;2.90;;;;;;;13.48;71.14;101870.53;3601170;39;20051;-66
2023/09/25 02:24:21;;;;;;;3.80;2.40;;;;;;;13.48;71.10;101870.53;3600305;39;20047;-65
2023/09/25 02:26:47;;;;;;;4.07;2.70;;;;;;;13.50;70.96;101876.69;3601444;39;20418;-66
2023/09/25 02:29:13;;;;;;;4.43;2.45;;;;;;;13.51;70.13;101881.16;3596500;39;20382;-65
2023/09/25 02:31:39;;;;;;;5.05;3.10;;;;;;;13.50;69.85;101871.31;3598933;39;20105;-66
2023/09/25 02:34:06;;;;;;;4.43;2.88;;;;;;;13.50;70.57;101879.41;3599782;39;20067;-65
2023/09/25 02:36:33;;;;;;;3.08;2.53;;;;;;;13.50;70.38;101879.41;3597117;39;20060;-65
2023/09/25 02:38:59;;;;;;;4.28;2.50;;;;;;;13.49;70.44;101880.38;3588468;39;20121;-66
2023/09/25 02:41:25;;;;;;;4.75;2.13;;;;;;;13.50;69.94;101878.53;3592855;39;20063;-65
2023/09/25 02:43:51;;;;;;;2.88;1.90;;;;;;;13.51;69.98;101875.75;3598339;39;20047;-66
2023/09/25 02:46:16;;;;;;;3.60;2.22;;;;;;;13.52;70.08;101880.19;3594027;39;20064;-66
2023/09/25 02:48:42;;;;;;;3.17;2.10;;;;;;;13.53;69.40;101873.81;3597737;39;20322;-67
2023/09/25 02:51:07;;;;;;;2.63;2.30;;;;;;;13.53;69.15;101876.53;3599560;39;20043;-65
2023/09/25 02:53:33;;;;;;;4.28;2.25;;;;;;;13.54;69.16;101878.28;3593205;39;20048;-65
2023/09/25 02:55:59;;;;;;;3.38;2.15;;;;;;;13.49;69.15;101871.41;3594983;39;20063;-65
2023/09/25 02:58:24;;;;;;;2.92;2.05;;;;;;;13.46;69.73;101861.63;3597097;39;20067;-66
2023/09/25 03:00:50;;;;;;;2.42;2.17;;;;;;;13.52;69.18;101876.63;3597127;39;20055;-65
2023/09/25 03:03:16;;;;;;;2.70;2.15;;;;;;;13.51;69.61;101874.88;3596807;39;20287;-65
2023/09/25 03:05:41;;;;;;;4.82;2.10;;;;;;;13.50;69.42;101867.72;3596889;39;20055;-65
2023/09/25 03:08:07;;;;;;;2.90;2.15;;;;;;;13.31;69.23;101846.31;3599068;39;20287;-64
2023/09/25 03:10:32;;;;;;;3.30;2.30;;;;;;;13.46;69.02;101872.44;3597131;39;20090;-66
2023/09/25 03:12:58;;;;;;;4.60;2.22;;;;;;;13.01;69.57;101801.16;3594067;39;20059;-66
2023/09/25 03:15:24;;;;;;;3.63;1.98;;;;;;;13.45;69.00;101878.81;3598184;39;20059;-66
2023/09/25 03:17:49;;;;;;;2.30;2.00;;;;;;;13.43;69.52;101873.47;3599870;39;20055;-65
2023/09/25 03:20:15;;;;;;;3.20;2.42;;;;;;;13.44;69.47;101880.63;3589479;39;20047;-66
2023/09/25 03:22:45;;;;;;;3.78;2.10;;;;;;;13.43;68.97;101870.78;3597850;39;20082;-67
2023/09/25 03:25:13;;;;;;;2.80;2.28;;;;;;;13.38;68.96;101864.78;3597450;39;20057;-67
2023/09/25 03:27:39;;;;;;;3.33;2.10;;;;;;;13.42;69.26;101870.88;3597924;39;20117;-66
2023/09/25 03:30:06;;;;;;;4.22;2.20;;;;;;;13.40;69.19;101873.66;3596389;39;20407;-65
2023/09/25 03:32:32;;;;;;;2.80;2.20;;;;;;;13.40;69.67;101878.19;3597149;39;20062;-66
2023/09/25 03:34:58;;;;;;;2.90;2.28;;;;;;;13.40;69.32;101872.78;3599446;39;20051;-65
2023/09/25 03:37:23;;;;;;;3.40;2.33;;;;;;;13.40;69.21;101875.50;3595430;39;20068;-66
2023/09/25 03:39:49;;;;;;;25.95;18.20;;;;;;;13.39;69.23;101871.06;3597344;39;20366;-66
2023/09/25 03:42:15;;;;;;;6.55;4.38;;;;;;;13.37;69.18;101873.84;3592434;39;20054;-66
2023/09/25 03:44:40;;;;;;;4.00;2.70;;;;;;;13.37;69.43;101868.44;3596128;39;20070;-67
2023/09/25 03:47:06;;;;;;;4.97;2.53;;;;;;;13.36;69.64;101871.22;3597917;39;20059;-66
2023/09/25 03:49:31;;;;;;;3.65;2.40;;;;;;;13.34;69.29;101868.59;3595285;39;20302;-66
2023/09/25 03:51:57;;;;;;;4.93;2.70;;;;;;;13.33;69.94;101869.56;3595906;39;20051;-66
2023/09/25 03:54:22;;;;;;;3.05;2.10;;;;;;;13.34;69.79;101873.13;3594788;39;20071;-67
2023/09/25 03:56:48;;;;;;;3.28;2.47;;;;;;;13.34;70.29;101873.13;3596982;39;20063;-67
2023/09/25 03:59:14;;;;;;;5.43;2.58;;;;;;;13.31;70.09;101874.19;3595801;39;20305;-66
2023/09/25 04:01:39;;;;;;;7.63;2.30;;;;;;;13.32;69.97;101880.44;3585351;39;20054;-66
2023/09/25 04:04:06;;;;;;;3.85;2.50;;;;;;;13.33;69.89;101880.38;3594161;39;20047;-66
2023/09/25 04:06:33;;;;;;;3.85;2.40;;;;;;;13.34;69.37;101878.53;3595127;39;20048;-66
2023/09/25 04:08:59;;;;;;;3.17;2.20;;;;;;;13.33;70.05;101882.22;3587729;39;20051;-67
2023/09/25 04:11:24;;;;;;;6.53;2.50;;;;;;;13.31;69.64;101882.28;3594896;39;20086;-66
2023/09/25 04:13:50;;;;;;;4.53;2.70;;;;;;;13.32;69.69;101884.03;3598698;39;20302;-66
2023/09/25 04:16:16;;;;;;;3.75;2.15;;;;;;;13.32;69.25;101892.16;3595342;39;20378;-67
2023/09/25 04:18:45;;;;;;;3.35;2.60;;;;;;;13.16;68.91;101858.81;3597901;39;20097;-66
2023/09/25 04:21:14;;;;;;;3.65;2.08;;;;;;;13.37;69.34;101883.78;3597928;39;20071;-66
2023/09/25 04:23:41;;;;;;;2.75;2.13;;;;;;;13.36;69.23;101876.63;3597453;39;20358;-65
2023/09/25 04:26:07;;;;;;;5.38;2.20;;;;;;;13.38;69.03;101881.00;3596845;39;20058;-66
2023/09/25 04:28:33;;;;;;;3.08;2.25;;;;;;;13.38;68.59;101881.00;3585825;39;20051;-67
2023/09/25 04:31:04;;;;;;;2.88;2.30;;;;;;;13.42;68.47;101882.56;3595679;39;20043;-67
2023/09/25 04:33:32;;;;;;;3.17;2.15;;;;;;;13.44;68.36;101885.16;3594577;39;20085;-66
2023/09/25 04:35:59;;;;;;;3.50;2.35;;;;;;;13.42;68.12;101882.56;3596780;39;20062;-65
2023/09/25 04:38:30;;;;;;;3.70;2.35;;;;;;;13.46;67.94;101881.41;3594898;39;20072;-67
2023/09/25 04:40:56;;;;;;;3.72;2.42;;;;;;;13.51;67.84;101891.97;3586382;39;20050;-65
2023/09/25 04:43:23;;;;;;;3.10;2.33;;;;;;;13.51;67.85;101891.06;3595859;39;20509;-66
2023/09/25 04:45:52;;;;;;;4.82;2.58;;;;;;;13.55;67.98;101895.38;3597383;39;20048;-66
2023/09/25 04:48:20;;;;;;;4.05;2.30;;;;;;;13.57;67.81;101886.19;3594634;39;20321;-67
2023/09/25 04:50:46;;;;;;;3.13;2.25;;;;;;;13.56;67.88;101895.25;3592537;39;20079;-67
2023/09/25 04:53:12;;;;;;;4.82;2.20;;;;;;;13.57;67.74;101897.00;3592766;39;20047;-66
2023/09/25 04:55:39;;;;;;;3.05;2.30;;;;;;;13.56;67.72;101899.81;3593729;39;20044;-66
2023/09/25 04:58:05;;;;;;;3.78;2.45;;;;;;;13.55;67.87;101896.22;3598194;39;20039;-65
2023/09/25 05:00:32;;;;;;;3.95;2.20;;;;;;;13.51;67.94;101891.97;3596311;39;20054;-67
2023/09/25 05:02:59;;;;;;;4.38;2.28;;;;;;;13.54;68.23;101902.59;3583537;39;20427;-65
2023/09/25 05:05:26;;;;;;;3.45;2.22;;;;;;;13.49;67.81;101888.47;3597209;39;20405;-66
2023/09/25 05:07:56;;;;;;;3.03;2.50;;;;;;;13.52;68.02;101901.81;3595316;39;20160;-66
2023/09/25 05:10:25;;;;;;;3.53;2.40;;;;;;;13.49;68.05;101893.88;3588394;39;20120;-66
2023/09/25 05:12:53;;;;;;;3.55;2.78;;;;;;;13.50;67.97;101901.00;3596003;39;20076;-66
2023/09/25 05:15:19;;;;;;;3.45;2.50;;;;;;;13.46;68.22;101899.47;3597334;39;20059;-66
2023/09/25 05:17:47;;;;;;;3.72;2.33;;;;;;;13.47;68.21;101903.88;3598176;39;20306;-67
2023/09/25 05:20:19;;;;;;;4.03;2.58;;;;;;;13.48;68.04;101902.94;3596576;39;20391;-65
2023/09/25 05:22:51;;;;;;;3.88;2.60;;;;;;;13.48;67.90;101905.66;3597597;39;20391;-64
2023/09/25 05:25:19;;;;;;;5.45;2.70;;;;;;;13.46;67.83;101905.72;3596317;39;20113;-65
2023/09/25 05:27:49;;;;;;;3.78;2.53;;;;;;;13.45;67.91;101909.41;3593728;39;20380;-66
2023/09/25 05:30:17;;;;;;;5.85;2.58;;;;;;;13.36;68.40;101892.84;3594453;39;20056;-65
2023/09/25 05:32:49;;;;;;;5.57;2.55;;;;;;;13.43;68.10;101913.13;3595872;39;20048;-65
2023/09/25 05:35:16;;;;;;;4.20;2.53;;;;;;;13.33;68.42;101890.31;3595450;39;20053;-66
2023/09/25 05:37:45;;;;;;;2.90;2.60;;;;;;;13.36;68.61;101903.66;3597338;39;20048;-64
2023/09/25 05:40:12;;;;;;;4.30;2.60;;;;;;;13.42;68.27;101914.09;3596675;39;20114;-65
2023/09/25 05:42:44;;;;;;;4.88;2.65;;;;;;;13.42;68.15;101914.09;3595549;39;20051;-66
2023/09/25 05:45:14;;;;;;;6.05;3.13;;;;;;;13.42;68.05;101911.41;3594819;39;20112;-66
2023/09/25 05:47:40;;;;;;;3.88;2.55;;;;;;;13.44;67.88;101915.72;3597191;39;20047;-65
2023/09/25 05:50:06;;;;;;;3.58;2.67;;;;;;;13.45;67.63;101909.41;3596556;39;20656;-66
2023/09/25 05:52:34;;;;;;;3.33;2.45;;;;;;;13.47;67.83;101920.09;3595328;39;20329;-64
2023/09/25 05:55:01;;;;;;;4.35;2.45;;;;;;;13.45;67.33;101913.94;3596388;39;20099;-65
2023/09/25 05:57:26;;;;;;;5.63;2.95;;;;;;;13.51;67.55;101912.69;3594761;39;20086;-66
2023/09/25 05:59:53;;;;;;;4.53;2.38;;;;;;;13.17;67.37;101857.88;3595849;39;20056;-66
2023/09/25 06:02:18;;;;;;;3.10;2.38;;;;;;;13.57;67.05;101912.34;3595075;39;20060;-65
2023/09/25 06:04:44;;;;;;;3.30;2.47;;;;;;;13.60;67.09;101915.72;3594208;39;20094;-65
2023/09/25 06:07:12;;;;;;;4.70;2.47;;;;;;;13.63;66.98;101923.66;3596957;39;20081;-66
2023/09/25 06:09:38;;;;;;;3.50;2.53;;;;;;;13.63;67.08;101917.41;3596492;39;20095;-65
2023/09/25 06:12:04;;;;;;;3.72;2.47;;;;;;;13.60;67.06;101907.63;3596665;39;20079;-65
2023/09/25 06:14:30;;;;;;;5.45;2.55;;;;;;;13.75;66.48;101921.22;3590519;39;20058;-66
2023/09/25 06:16:58;;;;;;;3.95;2.60;;;;;;;13.79;66.56;101920.09;3595261;39;20048;-65
2023/09/25 06:19:25;;;;;;;5.78;2.72;;;;;;;13.82;66.19;101922.63;3586519;39;20068;-66
2023/09/25 06:21:51;;;;;;;4.15;2.78;;;;;;;13.82;66.74;101922.63;3596013;39;20056;-66
2023/09/25 06:24:17;;;;;;;4.65;2.78;;;;;;;13.75;66.85;101905.03;3592905;39;20058;-66
2023/09/25 06:26:46;;;;;;;3.88;2.25;;;;;;;13.91;66.27;101922.09;3595584;39;20063;-65
2023/09/25 06:29:13;;;;;;;4.60;2.50;;;;;;;13.92;66.18;101927.41;3583545;39;20087;-66
2023/09/25 06:31:40;;;;;;;5.35;2.60;;;;;;;13.94;66.04;101924.59;3596168;39;20044;-66
2023/09/25 06:34:07;;;;;;;4.32;2.42;;;;;;;13.99;65.80;101925.22;3595684;39;20055;-64
2023/09/25 06:36:36;;;;;;;4.47;2.60;;;;;;;14.03;66.08;101921.38;3595648;39;20050;-66
2023/09/25 06:39:06;;;;;;;4.88;2.58;;;;;;;14.09;65.89;101926.41;3595286;39;20056;-66
2023/09/25 06:41:33;;;;;;;4.25;2.50;;;;;;;14.04;65.39;101911.41;3595794;39;20119;-65
2023/09/25 06:43:59;;;;;;;3.13;2.40;;;;;;;14.19;65.30;101929.44;3585429;39;20125;-66
2023/09/25 06:46:25;;;;;;;3.50;2.33;;;;;;;14.23;65.36;101927.41;3593730;39;20564;-66
2023/09/25 06:48:51;;;;;;;4.55;2.10;;;;;;;14.27;64.96;101937.09;3593999;39;20064;-65
2023/09/25 06:51:17;;;;;;;5.43;2.90;;;;;;;14.32;65.25;101940.41;3595322;39;20047;-65
2023/09/25 06:53:43;;;;;;;5.40;2.35;;;;;;;14.21;64.89;101908.59;3583206;40;20050;-66
2023/09/25 06:56:10;;;;;;;3.42;2.40;;;;;;;14.42;64.65;101938.88;3596809;39;20059;-66
2023/09/25 06:58:36;;;;;;;3.30;2.15;;;;;;;14.49;65.36;101934.84;3595453;39;20047;-66
2023/09/25 07:01:03;;;;;;;3.30;2.40;;;;;;;14.57;63.88;101937.13;3595143;39;20044;-65
2023/09/25 07:03:30;;;;;;;5.07;2.28;;;;;;;14.63;63.89;101937.63;3592120;39;20047;-64
2023/09/25 07:05:56;;;;;;;3.55;2.30;;;;;;;14.61;63.40;101903.50;3595114;39;20056;-65
2023/09/25 07:08:23;;;;;;;3.45;2.40;;;;;;;14.89;63.37;101932.44;3594524;39;20378;-66
2023/09/25 07:10:49;;;;;;;3.20;2.28;;;;;;;15.01;63.64;101926.25;3597250;39;20058;-66
2023/09/25 07:13:15;;;;;;;2.67;2.40;;;;;;;15.19;62.47;101937.75;3592663;39;20059;-66
2023/09/25 07:15:43;;;;;;;3.65;2.33;;;;;;;15.29;62.12;101927.22;3594564;39;20385;-66
2023/09/25 07:18:09;;;;;;;3.85;2.40;;;;;;;15.51;61.59;101935.69;3594321;39;20091;-64
2023/09/25 07:20:35;;;;;;;4.28;2.22;;;;;;;15.71;60.78;101936.25;3593677;39;20052;-65
2023/09/25 07:23:01;;;;;;;4.20;2.42;;;;;;;15.83;60.25;101940.88;3593451;39;20310;-66
2023/09/25 07:25:27;;;;;;;1.95;1.75;;;;;;;15.99;60.06;101933.47;3592349;39;20059;-65
2023/09/25 07:27:52;;;;;;;3.25;1.80;;;;;;;16.16;58.92;101936.88;3593967;39;20070;-65
2023/09/25 07:30:18;;;;;;;3.53;1.95;;;;;;;16.31;59.22;101927.69;3594339;39;20131;-65
2023/09/25 07:32:44;;;;;;;4.43;2.20;;;;;;;16.50;57.44;101940.88;3594852;39;20302;-65
2023/09/25 07:35:15;;;;;;;3.05;1.90;;;;;;;16.65;58.41;101933.47;3594818;39;20417;-64
2023/09/25 07:37:44;;;;;;;5.43;2.50;;;;;;;16.80;55.84;101921.59;3593760;39;20265;-65
2023/09/25 07:40:14;;;;;;;3.95;2.05;;;;;;;16.90;55.99;101932.66;3593356;39;20136;-65
2023/09/25 07:42:40;;;;;;;2.67;1.85;;;;;;;16.98;57.07;101930.28;3593201;39;20060;-64
2023/09/25 07:45:11;;;;;;;3.50;1.90;;;;;;;17.06;56.36;101927.00;3593919;39;20056;-65
2023/09/25 07:47:40;;;;;;;3.90;1.55;;;;;;;17.20;56.48;101928.75;3594049;39;20047;-65
2023/09/25 07:50:11;;;;;;;2.40;1.77;;;;;;;17.26;55.36;101928.31;3593223;39;20456;-66
2023/09/25 07:52:42;;;;;;;5.20;2.20;;;;;;;17.35;56.36;101916.78;3593982;39;20055;-66
2023/09/25 07:55:11;;;;;;;5.25;2.03;;;;;;;17.46;54.66;101929.56;3584776;39;20052;-66
2023/09/25 07:57:39;;;;;;;2.22;1.85;;;;;;;17.49;55.00;101923.91;3592983;39;20116;-66
2023/09/25 08:00:23;;;;;;;4.35;1.80;;;;;;;17.52;55.42;101934.56;3593182;39;20039;-66
2023/09/25 08:02:52;;;;;;;3.03;2.00;;;;;;;17.54;54.33;101938.91;3582992;40;20055;-67
2023/09/25 08:05:19;;;;;;;4.50;1.77;;;;;;;17.54;54.82;101921.72;3583342;39;20052;-66
2023/09/25 08:07:48;;;;;;;2.53;2.10;;;;;;;17.70;54.45;101941.38;3594093;39;20048;-66
2023/09/25 08:10:15;;;;;;;2.35;1.90;;;;;;;17.77;53.47;101937.22;3593900;39;20406;-67
2023/09/25 08:12:42;;;;;;;2.25;1.73;;;;;;;17.81;54.04;101940.59;3593455;39;20298;-66
2023/09/25 08:15:08;;;;;;;3.13;1.80;;;;;;;17.88;53.50;101932.81;3592263;39;20140;-67
2023/09/25 08:17:34;;;;;;;3.90;2.05;;;;;;;17.89;54.51;101940.00;3595159;39;20095;-67
2023/09/25 08:20:01;;;;;;;3.13;2.25;;;;;;;17.92;54.55;101937.03;3592576;39;20150;-66
2023/09/25 08:22:26;;;;;;;3.53;2.13;;;;;;;17.98;54.62;101936.59;3593213;39;20099;-65
2023/09/25 08:24:52;;;;;;;4.28;2.00;;;;;;;17.87;55.38;101904.75;3592878;39;20389;-66
2023/09/25 08:27:20;;;;;;;2.40;1.92;;;;;;;18.09;54.05;101933.94;3593921;39;20478;-67
2023/09/25 08:29:47;;;;;;;2.33;1.90;;;;;;;18.19;53.56;101936.81;3595193;39;20105;-66
2023/09/25 08:32:13;;;;;;;6.22;2.10;;;;;;;18.25;54.35;101934.50;3596178;39;20319;-66
2023/09/25 08:34:38;;;;;;;3.35;1.83;;;;;;;18.35;54.16;101936.50;3594676;39;20086;-66
2023/09/25 08:37:04;;;;;;;2.50;1.88;;;;;;;18.43;53.69;101928.63;3594475;39;20059;-67
2023/09/25 08:39:30;;;;;;;2.55;1.88;;;;;;;18.57;53.25;101928.41;3594476;39;20051;-67
2023/09/25 08:41:57;;;;;;;3.25;2.17;;;;;;;18.68;52.63;101922.13;3594643;39;20054;-65
2023/09/25 08:44:23;;;;;;;2.38;1.73;;;;;;;18.86;52.98;101928.00;3594574;39;20097;-67
2023/09/25 08:46:50;;;;;;;3.78;2.05;;;;;;;18.92;52.45;101922.94;3584152;40;20460;-66
2023/09/25 08:49:16;;;;;;;5.10;2.13;;;;;;;18.83;52.34;101893.69;3595305;39;20132;-67
2023/09/25 08:51:42;;;;;;;3.83;1.98;;;;;;;19.00;53.66;101884.19;3594558;39;20051;-67
2023/09/25 08:54:08;;;;;;;3.35;1.75;;;;;;;19.37;52.61;101916.63;3595984;39;20312;-67
2023/09/25 08:56:35;;;;;;;2.55;1.77;;;;;;;19.42;51.18;101914.41;3594575;39;20056;-65
2023/09/25 08:59:04;;;;;;;5.38;2.08;;;;;;;19.49;51.17;101910.16;3593857;39;20047;-67
2023/09/25 09:01:30;;;;;;;4.25;1.90;;;;;;;19.69;51.60;101916.72;3594728;39;20121;-66
2023/09/25 09:03:56;;;;;;;3.92;2.08;;;;;;;19.52;50.93;101885.38;3593142;39;20047;-66
2023/09/25 09:06:21;;;;;;;9.35;2.10;;;;;;;19.82;51.10;101922.03;3592525;39;20053;-67
2023/09/25 09:08:48;;;;;;;2.72;1.73;;;;;;;19.95;50.18;101920.03;3594199;39;20044;-67
2023/09/25 09:11:15;;;;;;;5.35;2.13;;;;;;;20.06;49.95;101921.84;3594803;39;20056;-67
2023/09/25 09:13:48;;;;;;;3.53;1.90;;;;;;;20.10;50.27;101921.44;3597715;39;20121;-66
2023/09/25 09:16:16;;;;;;;;;;;;;;;20.24;50.89;101924.88;3596525;39;20413;-66
2023/09/25 09:18:42;;;;;;;3.10;2.03;;;;;;;20.34;50.13;101925.81;3593568;39;19932;-66
2023/09/25 09:21:26;;;;;;;2.00;1.65;;;;;;;20.42;50.92;101906.88;3597194;39;20054;-66
2023/09/25 09:23:54;;;;;;;3.22;2.10;;;;;;;20.58;49.80;101921.00;3594354;39;20353;-66
2023/09/25 09:26:20;;;;;;;3.28;1.92;;;;;;;20.56;49.46;101923.00;3593398;39;20080;-66
2023/09/25 09:28:46;;;;;;;2.20;1.60;;;;;;;20.51;49.73;101919.78;3593844;39;20051;-66
2023/09/25 09:31:16;;;;;;;3.40;2.03;;;;;;;20.42;49.32;101917.81;3586493;39;20048;-66
2023/09/25 09:33:41;;;;;;;3.42;1.80;;;;;;;20.28;50.42;101923.59;3593664;39;20121;-66
2023/09/25 09:36:13;;;;;;;2.20;1.67;;;;;;;20.15;50.18;101911.00;3592850;39;20048;-66
2023/09/25 09:38:41;;;;;;;4.65;1.88;;;;;;;20.14;51.94;101920.19;3594237;39;20044;-66
2023/09/25 09:41:08;;;;;;;2.13;1.92;;;;;;;20.20;51.14;101918.78;3584909;39;20063;-66
2023/09/25 09:43:35;;;;;;;2.67;1.50;;;;;;;20.37;50.92;101920.09;3592657;39;20044;-66
2023/09/25 09:46:02;;;;;;;2.10;1.60;;;;;;;20.55;51.48;101918.53;3593367;39;20051;-66
2023/09/25 09:48:32;;;;;;;3.30;2.15;;;;;;;20.72;50.69;101921.66;3597038;39;20055;-67
2023/09/25 09:51:03;;;;;;;3.28;1.80;;;;;;;20.88;51.23;101908.38;3595468;39;20043;-64
2023/09/25 09:53:36;;;;;;;3.65;1.70;;;;;;;21.03;49.62;101930.75;3596109;39;20064;-65
2023/09/25 09:56:02;;;;;;;2.47;1.88;;;;;;;21.09;49.61;101922.88;3595460;39;20125;-66
2023/09/25 09:58:28;;;;;;;3.35;1.65;;;;;;;20.93;49.47;101903.38;3595304;39;20048;-64
2023/09/25 10:00:57;;;;;;;2.65;1.73;;;;;;;21.09;50.63;101924.72;3593310;39;20492;-66
2023/09/25 10:03:25;;;;;;;2.50;1.65;;;;;;;21.17;50.20;101922.19;3592434;39;20291;-64
2023/09/25 10:05:53;;;;;;;2.55;1.75;;;;;;;21.30;50.45;101928.28;3596777;39;20121;-64
2023/09/25 10:08:19;;;;;;;3.95;1.75;;;;;;;21.45;51.08;101926.06;3594447;39;20069;-65
2023/09/25 10:10:51;;;;;;;2.28;1.83;;;;;;;21.76;50.83;101923.28;3597022;39;20055;-65
2023/09/25 10:13:26;;;;;;;2.55;1.58;;;;;;;21.80;48.45;101927.47;3599184;39;20115;-64
2023/09/25 10:15:56;;;;;;;2.30;1.70;;;;;;;21.85;48.28;101925.16;3596472;39;20055;-65
2023/09/25 10:18:22;;;;;;;3.28;1.77;;;;;;;21.99;50.31;101922.00;3596903;39;20072;-64
2023/09/25 10:20:49;;;;;;;2.88;1.65;;;;;;;22.05;47.74;101920.56;3600062;39;20335;-65
2023/09/25 10:23:25;;;;;;;1.50;1.38;;;;;;;22.07;48.33;101925.91;3600730;39;20055;-65
2023/09/25 10:25:50;;;;;;;1.90;1.38;;;;;;;22.23;48.36;101918.88;3596002;39;20063;-66
2023/09/25 10:28:38;;;;;;;1.70;1.30;;;;;;;22.38;47.60;101930.25;3601345;39;20121;-66
2023/09/25 10:31:21;;;;;;;4.78;1.98;;;;;;;22.41;47.43;101926.38;3596830;39;20272;-67
2023/09/25 10:34:04;;;;;;;2.60;1.70;;;;;;;22.48;47.99;101925.63;3596158;39;20057;-66
2023/09/25 10:36:40;;;;;;;8.40;3.40;;;;;;;22.54;47.39;101931.53;3598362;39;20051;-66
2023/09/25 10:39:15;;;;;;;3.55;1.30;;;;;;;22.65;45.80;101936.88;3600431;39;20047;-66
2023/09/25 10:41:45;;;;;;;3.30;1.55;;;;;;;22.73;45.48;101927.91;3597187;39;20109;-66
2023/09/25 10:44:12;;;;;;;2.85;1.58;;;;;;;22.45;45.84;101875.72;3598909;39;20050;-65
2023/09/25 10:46:41;;;;;;;1.70;1.30;;;;;;;22.86;46.21;101928.44;3598148;39;20090;-67
2023/09/25 10:49:08;;;;;;;2.08;1.50;;;;;;;22.92;44.78;101916.88;3594586;39;20047;-66
2023/09/25 10:51:35;;;;;;;2.60;1.60;;;;;;;22.87;46.67;101892.69;3598051;39;20120;-66
2023/09/25 10:54:02;;;;;;;2.40;1.25;;;;;;;23.13;44.52;101917.56;3598359;39;20039;-66
2023/09/25 10:56:28;;;;;;;2.08;1.35;;;;;;;23.21;45.39;101914.06;3598375;39;21527;-65
2023/09/25 10:58:56;;;;;;;1.30;1.23;;;;;;;23.29;44.99;101919.69;3598600;39;20066;-67
2023/09/25 11:01:30;;;;;;;2.80;1.73;;;;;;;23.38;44.55;101920.66;3596899;39;20063;-65
2023/09/25 11:03:59;;;;;;;2.10;1.58;;;;;;;23.40;43.55;101921.34;3595613;39;20068;-65
2023/09/25 11:06:26;;;;;;;5.22;1.52;;;;;;;23.50;43.52;101921.28;3592400;39;20060;-64
2023/09/25 11:09:04;;;;;;;2.72;1.50;;;;;;;23.60;45.34;101927.63;3597989;39;20055;-65
2023/09/25 11:11:30;;;;;;;1.90;1.42;;;;;;;23.62;42.99;101925.56;3599711;39;20128;-65
2023/09/25 11:13:57;;;;;;;1.67;1.25;;;;;;;23.52;43.05;101911.91;3591922;39;20052;-67
2023/09/25 11:16:24;;;;;;;2.03;1.42;;;;;;;23.66;43.79;101921.50;3600449;39;20337;-65
2023/09/25 11:19:11;;;;;;;4.00;1.73;;;;;;;23.71;43.78;101907.34;3601375;39;20139;-66
2023/09/25 11:21:39;;;;;;;2.80;1.65;;;;;;;24.07;44.42;101924.69;3599368;39;20112;-65
2023/09/25 11:24:09;;;;;;;3.67;1.70;;;;;;;24.23;44.05;101924.88;3600070;39;20047;-64
2023/09/25 11:26:41;;;;;;;2.72;1.48;;;;;;;24.36;42.39;101929.09;3599067;39;20048;-64